sensor_id;sensor_type;location;lat;lon;timestamp;pressure;altitude;pressure_sealevel;temperature;humidity
28428;BME280;15662;49.128;8.520;2023-04-30T00:00:34;100813.34;;;18.58;48.38
28428;BME280;15662;49.128;8.520;2023-04-30T00:03:02;100809.78;;;18.58;48.34
28428;BME280;15662;49.128;8.520;2023-04-30T00:05:31;100809.94;;;18.54;48.52
28428;BME280;15662;49.128;8.520;2023-04-30T00:07:59;100808.34;;;18.50;48.45
28428;BME280;15662;49.128;8.520;2023-04-30T00:10:27;100816.50;;;18.49;48.38
28428;BME280;15662;49.128;8.520;2023-04-30T00:12:54;100814.81;;;18.46;48.47
28428;BME280;15662;49.128;8.520;2023-04-30T00:15:23;100818.53;;;18.44;48.56
28428;BME280;15662;49.128;8.520;2023-04-30T00:17:51;100810.63;;;18.41;48.55
28428;BME280;15662;49.128;8.520;2023-04-30T00:20:19;100819.56;;;18.41;48.63
28428;BME280;15662;49.128;8.520;2023-04-30T00:22:47;100818.63;;;18.42;48.70
28428;BME280;15662;49.128;8.520;2023-04-30T00:25:15;100824.00;;;18.42;48.63
28428;BME280;15662;49.128;8.520;2023-04-30T00:27:43;100824.06;;;18.41;48.65
28428;BME280;15662;49.128;8.520;2023-04-30T00:30:11;100817.97;;;18.37;48.73
28428;BME280;15662;49.128;8.520;2023-04-30T00:32:40;100814.41;;;18.37;48.61
28428;BME280;15662;49.128;8.520;2023-04-30T00:35:08;100837.56;;;18.39;48.65
28428;BME280;15662;49.128;8.520;2023-04-30T00:37:37;100828.78;;;18.36;48.64
28428;BME280;15662;49.128;8.520;2023-04-30T00:40:05;100835.88;;;18.37;48.62
28428;BME280;15662;49.128;8.520;2023-04-30T00:42:33;100836.94;;;18.34;48.68
28428;BME280;15662;49.128;8.520;2023-04-30T00:45:01;100828.06;;;18.32;48.61
28428;BME280;15662;49.128;8.520;2023-04-30T00:47:29;100822.06;;;18.27;48.60
28428;BME280;15662;49.128;8.520;2023-04-30T00:49:59;100831.03;;;18.27;48.67
28428;BME280;15662;49.128;8.520;2023-04-30T00:52:27;100825.78;;;18.24;48.69
28428;BME280;15662;49.128;8.520;2023-04-30T00:54:55;100825.06;;;18.21;48.74
28428;BME280;15662;49.128;8.520;2023-04-30T00:57:23;100819.88;;;18.18;48.71
28428;BME280;15662;49.128;8.520;2023-04-30T00:59:51;100825.28;;;18.16;48.77
28428;BME280;15662;49.128;8.520;2023-04-30T01:02:20;100828.78;;;18.18;48.81
28428;BME280;15662;49.128;8.520;2023-04-30T01:04:50;100825.38;;;18.15;48.88
28428;BME280;15662;49.128;8.520;2023-04-30T01:07:18;100818.50;;;18.09;48.92
28428;BME280;15662;49.128;8.520;2023-04-30T01:09:46;100831.69;;;18.14;48.85
28428;BME280;15662;49.128;8.520;2023-04-30T01:12:52;100812.28;;;18.09;48.88
28428;BME280;15662;49.128;8.520;2023-04-30T01:15:47;100811.41;;;18.08;48.88
28428;BME280;15662;49.128;8.520;2023-04-30T01:18:28;100804.59;;;18.01;49.04
28428;BME280;15662;49.128;8.520;2023-04-30T01:21:05;100811.69;;;18.02;49.12
28428;BME280;15662;49.128;8.520;2023-04-30T01:24:01;100815.34;;;18.01;49.06
28428;BME280;15662;49.128;8.520;2023-04-30T01:26:56;100811.06;;;17.97;49.23
28428;BME280;15662;49.128;8.520;2023-04-30T01:29:26;100816.66;;;17.92;49.39
28428;BME280;15662;49.128;8.520;2023-04-30T01:31:55;100811.38;;;17.91;49.35
28428;BME280;15662;49.128;8.520;2023-04-30T01:34:23;100809.56;;;17.91;49.42
28428;BME280;15662;49.128;8.520;2023-04-30T01:40:01;100808.69;;;17.91;49.44
28428;BME280;15662;49.128;8.520;2023-04-30T01:43:04;100802.59;;;17.87;49.51
28428;BME280;15662;49.128;8.520;2023-04-30T01:46:27;100801.91;;;17.84;49.50
28428;BME280;15662;49.128;8.520;2023-04-30T01:49:35;100800.94;;;17.85;49.47
28428;BME280;15662;49.128;8.520;2023-04-30T01:52:18;100808.13;;;17.84;49.54
28428;BME280;15662;49.128;8.520;2023-04-30T01:55:27;100808.34;;;17.79;49.33
28428;BME280;15662;49.128;8.520;2023-04-30T01:57:58;100810.22;;;17.77;49.54
28428;BME280;15662;49.128;8.520;2023-04-30T02:00:28;100804.00;;;17.77;49.60
28428;BME280;15662;49.128;8.520;2023-04-30T02:02:59;100802.41;;;17.73;49.56
28428;BME280;15662;49.128;8.520;2023-04-30T02:05:27;100802.25;;;17.76;49.62
28428;BME280;15662;49.128;8.520;2023-04-30T02:07:55;100803.13;;;17.76;49.57
28428;BME280;15662;49.128;8.520;2023-04-30T02:10:25;100804.00;;;17.77;49.60
28428;BME280;15662;49.128;8.520;2023-04-30T02:12:53;100810.22;;;17.77;49.61
28428;BME280;15662;49.128;8.520;2023-04-30T02:15:21;100809.44;;;17.75;49.69
28428;BME280;15662;49.128;8.520;2023-04-30T02:17:48;100812.19;;;17.74;49.70
28428;BME280;15662;49.128;8.520;2023-04-30T02:20:16;100811.34;;;17.73;49.77
28428;BME280;15662;49.128;8.520;2023-04-30T02:22:45;100801.66;;;17.69;49.78
28428;BME280;15662;49.128;8.520;2023-04-30T02:25:13;100805.97;;;17.73;49.67
28428;BME280;15662;49.128;8.520;2023-04-30T02:27:41;100808.66;;;17.73;49.78
28428;BME280;15662;49.128;8.520;2023-04-30T02:30:09;100804.19;;;17.72;49.69
28428;BME280;15662;49.128;8.520;2023-04-30T02:32:37;100806.84;;;17.72;49.60
28428;BME280;15662;49.128;8.520;2023-04-30T02:35:05;100805.22;;;17.70;49.87
28428;BME280;15662;49.128;8.520;2023-04-30T02:37:33;100806.16;;;17.69;49.75
28428;BME280;15662;49.128;8.520;2023-04-30T02:40:01;100801.66;;;17.69;49.86
28428;BME280;15662;49.128;8.520;2023-04-30T02:42:28;100807.91;;;17.70;49.81
28428;BME280;15662;49.128;8.520;2023-04-30T02:44:56;100808.91;;;17.67;49.79
28428;BME280;15662;49.128;8.520;2023-04-30T02:47:24;100808.84;;;17.69;49.82
28428;BME280;15662;49.128;8.520;2023-04-30T02:49:52;100809.72;;;17.69;49.88
28428;BME280;15662;49.128;8.520;2023-04-30T02:52:20;100804.47;;;17.66;49.94
28428;BME280;15662;49.128;8.520;2023-04-30T02:54:48;100806.06;;;17.70;49.82
28428;BME280;15662;49.128;8.520;2023-04-30T02:57:16;100808.84;;;17.69;49.81
28428;BME280;15662;49.128;8.520;2023-04-30T02:59:44;100806.38;;;17.64;49.72
28428;BME280;15662;49.128;8.520;2023-04-30T03:02:12;100815.22;;;17.66;49.82
28428;BME280;15662;49.128;8.520;2023-04-30T03:04:40;100803.75;;;17.63;49.83
28428;BME280;15662;49.128;8.520;2023-04-30T03:07:08;100801.16;;;17.61;49.85
28428;BME280;15662;49.128;8.520;2023-04-30T03:09:36;100813.69;;;17.61;49.88
28428;BME280;15662;49.128;8.520;2023-04-30T03:12:04;100819.91;;;17.61;49.80
28428;BME280;15662;49.128;8.520;2023-04-30T03:14:32;100814.56;;;17.61;49.85
28428;BME280;15662;49.128;8.520;2023-04-30T03:17:00;100813.59;;;17.62;49.76
28428;BME280;15662;49.128;8.520;2023-04-30T03:19:28;100807.56;;;17.59;49.84
28428;BME280;15662;49.128;8.520;2023-04-30T03:21:56;100803.19;;;17.56;49.71
28428;BME280;15662;49.128;8.520;2023-04-30T03:24:24;100800.63;;;17.53;49.83
28428;BME280;15662;49.128;8.520;2023-04-30T03:26:52;100800.59;;;17.54;49.74
28428;BME280;15662;49.128;8.520;2023-04-30T03:29:19;100804.19;;;17.53;49.77
28428;BME280;15662;49.128;8.520;2023-04-30T03:31:47;100802.31;;;17.56;49.87
28428;BME280;15662;49.128;8.520;2023-04-30T03:34:15;100788.41;;;17.47;49.87
28428;BME280;15662;49.128;8.520;2023-04-30T03:36:43;100804.28;;;17.52;49.88
28428;BME280;15662;49.128;8.520;2023-04-30T03:39:10;100804.28;;;17.52;49.85
28428;BME280;15662;49.128;8.520;2023-04-30T03:41:38;100794.63;;;17.48;49.95
28428;BME280;15662;49.128;8.520;2023-04-30T03:44:06;100791.94;;;17.48;50.00
28428;BME280;15662;49.128;8.520;2023-04-30T03:46:41;100789.34;;;17.46;49.93
28428;BME280;15662;49.128;8.520;2023-04-30T03:49:12;100790.38;;;17.44;50.00
28428;BME280;15662;49.128;8.520;2023-04-30T03:51:40;100784.13;;;17.43;49.91
28428;BME280;15662;49.128;8.520;2023-04-30T03:54:08;100791.38;;;17.41;49.85
28428;BME280;15662;49.128;8.520;2023-04-30T03:56:36;100793.28;;;17.39;49.86
28428;BME280;15662;49.128;8.520;2023-04-30T03:59:05;100788.84;;;17.38;49.79
28428;BME280;15662;49.128;8.520;2023-04-30T04:01:33;100778.41;;;17.32;49.85
28428;BME280;15662;49.128;8.520;2023-04-30T04:04:01;100787.31;;;17.33;49.76
28428;BME280;15662;49.128;8.520;2023-04-30T04:06:30;100792.84;;;17.30;49.87
28428;BME280;15662;49.128;8.520;2023-04-30T04:08:58;100795.44;;;17.31;50.00
28428;BME280;15662;49.128;8.520;2023-04-30T04:11:26;100789.44;;;17.26;49.89
28428;BME280;15662;49.128;8.520;2023-04-30T04:13:55;100788.56;;;17.25;49.79
28428;BME280;15662;49.128;8.520;2023-04-30T04:16:23;100796.53;;;17.27;49.97
28428;BME280;15662;49.128;8.520;2023-04-30T04:18:51;100790.59;;;17.20;49.75
28428;BME280;15662;49.128;8.520;2023-04-30T04:21:20;100785.38;;;17.17;49.73
28428;BME280;15662;49.128;8.520;2023-04-30T04:23:47;100800.44;;;17.20;49.82
28428;BME280;15662;49.128;8.520;2023-04-30T04:26:15;100792.63;;;17.15;49.67
28428;BME280;15662;49.128;8.520;2023-04-30T04:28:46;100815.47;;;17.22;49.77
28428;BME280;15662;49.128;8.520;2023-04-30T04:31:14;100815.56;;;17.21;49.65
28428;BME280;15662;49.128;8.520;2023-04-30T04:33:43;100807.44;;;17.22;49.74
28428;BME280;15662;49.128;8.520;2023-04-30T04:36:11;100806.59;;;17.22;49.56
28428;BME280;15662;49.128;8.520;2023-04-30T04:38:42;100810.22;;;17.21;49.42
28428;BME280;15662;49.128;8.520;2023-04-30T04:41:10;100821.78;;;17.21;49.70
28428;BME280;15662;49.128;8.520;2023-04-30T04:43:38;100818.16;;;17.22;49.59
28428;BME280;15662;49.128;8.520;2023-04-30T04:46:06;100809.19;;;17.23;49.65
28428;BME280;15662;49.128;8.520;2023-04-30T04:48:37;100814.53;;;17.23;49.64
28428;BME280;15662;49.128;8.520;2023-04-30T04:51:05;100807.44;;;17.22;49.48
28428;BME280;15662;49.128;8.520;2023-04-30T04:53:32;100804.97;;;17.18;49.51
28428;BME280;15662;49.128;8.520;2023-04-30T04:56:01;100825.13;;;17.26;49.59
28428;BME280;15662;49.128;8.520;2023-04-30T04:58:30;100818.03;;;17.25;49.66
28428;BME280;15662;49.128;8.520;2023-04-30T05:00:58;100822.44;;;17.26;49.60
28428;BME280;15662;49.128;8.520;2023-04-30T05:03:27;100808.28;;;17.24;49.58
28428;BME280;15662;49.128;8.520;2023-04-30T05:05:55;100817.97;;;17.27;49.60
28428;BME280;15662;49.128;8.520;2023-04-30T05:08:23;100820.56;;;17.28;49.55
28428;BME280;15662;49.128;8.520;2023-04-30T05:10:52;100818.78;;;17.29;49.51
28428;BME280;15662;49.128;8.520;2023-04-30T05:13:19;100819.63;;;17.30;49.59
28428;BME280;15662;49.128;8.520;2023-04-30T05:15:52;100809.91;;;17.27;49.54
28428;BME280;15662;49.128;8.520;2023-04-30T05:18:20;100809.91;;;17.27;49.61
28428;BME280;15662;49.128;8.520;2023-04-30T05:20:48;100815.81;;;17.35;49.70
28428;BME280;15662;49.128;8.520;2023-04-30T05:23:15;100813.03;;;17.37;49.54
28428;BME280;15662;49.128;8.520;2023-04-30T05:25:43;100823.63;;;17.40;49.60
28428;BME280;15662;49.128;8.520;2023-04-30T05:28:12;100819.91;;;17.42;49.59
28428;BME280;15662;49.128;8.520;2023-04-30T05:30:39;100815.38;;;17.44;49.60
28428;BME280;15662;49.128;8.520;2023-04-30T05:33:07;100820.50;;;17.49;49.56
28428;BME280;15662;49.128;8.520;2023-04-30T05:35:35;100820.34;;;17.52;49.53
28428;BME280;15662;49.128;8.520;2023-04-30T05:38:03;100810.66;;;17.49;49.47
28428;BME280;15662;49.128;8.520;2023-04-30T05:40:31;100822.81;;;17.57;49.36
28428;BME280;15662;49.128;8.520;2023-04-30T05:42:59;100819.19;;;17.58;49.34
28428;BME280;15662;49.128;8.520;2023-04-30T05:45:27;100806.94;;;17.52;49.43
28428;BME280;15662;49.128;8.520;2023-04-30T05:47:54;100820.06;;;17.58;49.52
28428;BME280;15662;49.128;8.520;2023-04-30T05:50:22;100827.88;;;17.63;49.18
28428;BME280;15662;49.128;8.520;2023-04-30T05:52:50;100823.38;;;17.63;49.05
28428;BME280;15662;49.128;8.520;2023-04-30T05:55:18;100807.59;;;17.57;49.00
28428;BME280;15662;49.128;8.520;2023-04-30T05:57:45;100823.47;;;17.62;49.10
28428;BME280;15662;49.128;8.520;2023-04-30T06:00:14;100826.00;;;17.65;49.07
28428;BME280;15662;49.128;8.520;2023-04-30T06:02:42;100812.81;;;17.60;48.94
28428;BME280;15662;49.128;8.520;2023-04-30T06:05:10;100818.91;;;17.64;49.04
28428;BME280;15662;49.128;8.520;2023-04-30T06:07:41;100822.38;;;17.66;49.17
28428;BME280;15662;49.128;8.520;2023-04-30T06:10:09;100816.72;;;17.72;49.08
28428;BME280;15662;49.128;8.520;2023-04-30T06:12:37;100820.16;;;17.75;49.05
28428;BME280;15662;49.128;8.520;2023-04-30T06:15:06;100816.31;;;17.81;49.12
28428;BME280;15662;49.128;8.520;2023-04-30T06:17:34;100827.59;;;17.88;48.95
28428;BME280;15662;49.128;8.520;2023-04-30T06:20:02;100837.19;;;17.93;48.95
28428;BME280;15662;49.128;8.520;2023-04-30T06:22:33;100821.00;;;17.95;49.10
28428;BME280;15662;49.128;8.520;2023-04-30T06:25:01;100827.78;;;18.02;49.09
28428;BME280;15662;49.128;8.520;2023-04-30T06:27:30;100815.66;;;18.12;49.25
28428;BME280;15662;49.128;8.520;2023-04-30T06:30:06;100831.31;;;18.21;49.31
28428;BME280;15662;49.128;8.520;2023-04-30T06:32:33;100825.56;;;18.29;49.26
28428;BME280;15662;49.128;8.520;2023-04-30T06:35:01;100830.53;;;18.37;49.19
28428;BME280;15662;49.128;8.520;2023-04-30T06:37:29;100825.00;;;18.40;48.83
28428;BME280;15662;49.128;8.520;2023-04-30T06:40:07;100822.72;;;18.49;48.75
28428;BME280;15662;49.128;8.520;2023-04-30T06:42:35;100831.50;;;18.53;48.82
28428;BME280;15662;49.128;8.520;2023-04-30T06:45:03;100822.16;;;18.60;48.76
28428;BME280;15662;49.128;8.520;2023-04-30T06:47:34;100832.47;;;18.69;48.79
28428;BME280;15662;49.128;8.520;2023-04-30T06:50:04;100825.66;;;18.79;48.95
28428;BME280;15662;49.128;8.520;2023-04-30T06:52:33;100827.00;;;18.88;48.88
28428;BME280;15662;49.128;8.520;2023-04-30T06:55:01;100831.66;;;19.02;48.58
28428;BME280;15662;49.128;8.520;2023-04-30T06:57:29;100831.94;;;19.13;48.36
28428;BME280;15662;49.128;8.520;2023-04-30T06:59:57;100816.53;;;19.17;48.08
28428;BME280;15662;49.128;8.520;2023-04-30T07:02:25;100823.28;;;19.24;48.03
28428;BME280;15662;49.128;8.520;2023-04-30T07:04:54;100822.25;;;19.26;47.95
28428;BME280;15662;49.128;8.520;2023-04-30T07:07:21;100824.16;;;19.40;47.62
28428;BME280;15662;49.128;8.520;2023-04-30T07:09:49;100830.09;;;19.47;47.29
28428;BME280;15662;49.128;8.520;2023-04-30T07:12:19;100820.72;;;19.54;47.22
28428;BME280;15662;49.128;8.520;2023-04-30T07:14:47;100817.72;;;19.60;47.24
28428;BME280;15662;49.128;8.520;2023-04-30T07:17:15;100829.00;;;19.67;47.00
28428;BME280;15662;49.128;8.520;2023-04-30T07:19:43;100809.38;;;19.65;46.77
28428;BME280;15662;49.128;8.520;2023-04-30T07:22:11;100816.25;;;19.70;46.14
28428;BME280;15662;49.128;8.520;2023-04-30T07:24:39;100827.91;;;19.71;46.17
28428;BME280;15662;49.128;8.520;2023-04-30T07:27:06;100813.28;;;19.75;45.96
28428;BME280;15662;49.128;8.520;2023-04-30T07:29:34;100816.78;;;19.77;45.21
28428;BME280;15662;49.128;8.520;2023-04-30T07:32:02;100821.28;;;19.76;45.26
28428;BME280;15662;49.128;8.520;2023-04-30T07:34:30;100818.34;;;19.81;45.22
28428;BME280;15662;49.128;8.520;2023-04-30T07:36:58;100818.34;;;19.81;44.79
28428;BME280;15662;49.128;8.520;2023-04-30T07:39:26;100820.06;;;19.82;44.71
28428;BME280;15662;49.128;8.520;2023-04-30T07:41:54;100808.44;;;19.81;44.35
28428;BME280;15662;49.128;8.520;2023-04-30T07:44:22;100815.47;;;19.84;44.39
28428;BME280;15662;49.128;8.520;2023-04-30T07:46:50;100809.72;;;19.74;44.19
28428;BME280;15662;49.128;8.520;2023-04-30T07:49:18;100820.06;;;19.82;44.27
28428;BME280;15662;49.128;8.520;2023-04-30T07:51:46;100811.03;;;19.83;44.23
28428;BME280;15662;49.128;8.520;2023-04-30T07:54:14;100802.88;;;19.84;44.12
28428;BME280;15662;49.128;8.520;2023-04-30T07:56:41;100810.69;;;19.89;43.87
28428;BME280;15662;49.128;8.520;2023-04-30T07:59:09;100802.72;;;19.88;44.06
28428;BME280;15662;49.128;8.520;2023-04-30T08:01:37;100809.81;;;19.89;43.92
28428;BME280;15662;49.128;8.520;2023-04-30T08:04:05;100813.31;;;19.91;43.81
28428;BME280;15662;49.128;8.520;2023-04-30T08:06:34;100803.47;;;19.90;43.67
28428;BME280;15662;49.128;8.520;2023-04-30T08:09:01;100812.25;;;19.93;43.76
28428;BME280;15662;49.128;8.520;2023-04-30T08:11:30;100800.25;;;19.99;43.80
28428;BME280;15662;49.128;8.520;2023-04-30T08:13:58;100798.44;;;19.99;43.56
28428;BME280;15662;49.128;8.520;2023-04-30T08:16:25;100801.91;;;20.01;43.14
28428;BME280;15662;49.128;8.520;2023-04-30T08:18:53;100803.53;;;20.04;43.37
28428;BME280;15662;49.128;8.520;2023-04-30T08:21:21;100803.28;;;20.08;43.47
28428;BME280;15662;49.128;8.520;2023-04-30T08:23:49;100802.16;;;20.13;43.45
28428;BME280;15662;49.128;8.520;2023-04-30T08:26:17;100809.78;;;20.20;43.47
28428;BME280;15662;49.128;8.520;2023-04-30T08:28:44;100813.75;;;20.29;43.41
28428;BME280;15662;49.128;8.520;2023-04-30T08:31:12;100816.75;;;20.39;43.33
28428;BME280;15662;49.128;8.520;2023-04-30T08:33:40;100805.81;;;20.42;42.93
28428;BME280;15662;49.128;8.520;2023-04-30T08:36:08;100804.34;;;20.52;42.84
28428;BME280;15662;49.128;8.520;2023-04-30T08:38:37;100813.88;;;20.57;42.90
28428;BME280;15662;49.128;8.520;2023-04-30T08:41:12;100816.88;;;20.67;42.63
28428;BME280;15662;49.128;8.520;2023-04-30T08:43:42;100815.56;;;20.74;42.78
28428;BME280;15662;49.128;8.520;2023-04-30T08:46:11;100812.59;;;20.79;42.46
28428;BME280;15662;49.128;8.520;2023-04-30T08:48:40;100821.16;;;20.85;42.35
28428;BME280;15662;49.128;8.520;2023-04-30T08:51:08;100806.88;;;20.83;42.13
28428;BME280;15662;49.128;8.520;2023-04-30T08:53:36;100800.28;;;20.89;42.19
28428;BME280;15662;49.128;8.520;2023-04-30T08:56:05;100816.91;;;20.96;41.81
28428;BME280;15662;49.128;8.520;2023-04-30T08:58:33;100806.53;;;20.90;41.21
28428;BME280;15662;49.128;8.520;2023-04-30T09:01:01;100818.47;;;21.00;41.54
28428;BME280;15662;49.128;8.520;2023-04-30T09:03:30;100805.56;;;21.05;41.02
28428;BME280;15662;49.128;8.520;2023-04-30T09:05:58;100797.50;;;21.05;41.10
28428;BME280;15662;49.128;8.520;2023-04-30T09:08:47;100797.56;;;21.18;40.55
28428;BME280;15662;49.128;8.520;2023-04-30T09:11:30;100792.66;;;21.24;40.19
28428;BME280;15662;49.128;8.520;2023-04-30T09:14:00;100800.97;;;21.35;39.41
28428;BME280;15662;49.128;8.520;2023-04-30T09:16:44;100795.19;;;21.42;38.70
28428;BME280;15662;49.128;8.520;2023-04-30T09:19:28;100788.06;;;21.41;38.38
28428;BME280;15662;49.128;8.520;2023-04-30T09:21:56;100806.34;;;21.50;39.08
28428;BME280;15662;49.128;8.520;2023-04-30T09:24:24;100798.81;;;21.55;38.73
28428;BME280;15662;49.128;8.520;2023-04-30T09:26:53;100802.47;;;21.68;38.53
28428;BME280;15662;49.128;8.520;2023-04-30T09:29:20;100797.72;;;21.72;38.15
28428;BME280;15662;49.128;8.520;2023-04-30T09:31:48;100790.47;;;21.72;37.80
28428;BME280;15662;49.128;8.520;2023-04-30T09:34:16;100787.47;;;21.77;37.31
28428;BME280;15662;49.128;8.520;2023-04-30T09:36:54;100797.91;;;21.83;37.40
28428;BME280;15662;49.128;8.520;2023-04-30T09:39:22;100793.56;;;21.80;37.52
28428;BME280;15662;49.128;8.520;2023-04-30T09:41:50;100791.97;;;21.90;37.03
28428;BME280;15662;49.128;8.520;2023-04-30T09:44:30;100805.94;;;21.97;36.75
28428;BME280;15662;49.128;8.520;2023-04-30T09:46:59;100811.13;;;22.00;36.78
28428;BME280;15662;49.128;8.520;2023-04-30T09:49:27;100803.59;;;22.05;36.19
28428;BME280;15662;49.128;8.520;2023-04-30T09:51:59;100797.44;;;22.03;36.06
28428;BME280;15662;49.128;8.520;2023-04-30T09:54:29;100795.72;;;22.02;35.32
28428;BME280;15662;49.128;8.520;2023-04-30T09:57:00;100797.75;;;21.99;34.92
28428;BME280;15662;49.128;8.520;2023-04-30T09:59:33;100797.84;;;21.97;34.92
28428;BME280;15662;49.128;8.520;2023-04-30T10:02:07;100792.34;;;21.99;35.07
28428;BME280;15662;49.128;8.520;2023-04-30T10:04:38;100785.78;;;22.03;35.08
28428;BME280;15662;49.128;8.520;2023-04-30T10:07:20;100798.59;;;22.13;34.57
28428;BME280;15662;49.128;8.520;2023-04-30T10:10:07;100793.84;;;22.17;34.51
28428;BME280;15662;49.128;8.520;2023-04-30T10:12:42;100786.63;;;22.18;34.89
28428;BME280;15662;49.128;8.520;2023-04-30T10:15:15;100794.09;;;22.27;35.10
28428;BME280;15662;49.128;8.520;2023-04-30T10:17:53;100796.69;;;22.41;34.45
28428;BME280;15662;49.128;8.520;2023-04-30T10:20:24;100797.16;;;22.48;34.38
28428;BME280;15662;49.128;8.520;2023-04-30T10:22:53;100795.97;;;22.52;34.55
28428;BME280;15662;49.128;8.520;2023-04-30T10:25:21;100790.16;;;22.58;34.47
28428;BME280;15662;49.128;8.520;2023-04-30T10:27:50;100794.47;;;22.60;34.19
28428;BME280;15662;49.128;8.520;2023-04-30T10:30:18;100790.03;;;22.59;34.13
28428;BME280;15662;49.128;8.520;2023-04-30T10:33:22;100777.63;;;22.57;33.93
28428;BME280;15662;49.128;8.520;2023-04-30T10:38:29;100785.50;;;22.60;34.07
28428;BME280;15662;49.128;8.520;2023-04-30T10:41:00;100769.72;;;22.54;34.44
28428;BME280;15662;49.128;8.520;2023-04-30T10:43:32;100784.97;;;22.67;34.28
28428;BME280;15662;49.128;8.520;2023-04-30T10:46:01;100772.22;;;22.70;34.29
28428;BME280;15662;49.128;8.520;2023-04-30T10:48:33;100767.03;;;22.79;33.91
28428;BME280;15662;49.128;8.520;2023-04-30T10:51:01;100767.13;;;22.65;34.75
28428;BME280;15662;49.128;8.520;2023-04-30T10:53:30;100762.41;;;22.81;34.72
28428;BME280;15662;49.128;8.520;2023-04-30T10:56:00;100751.81;;;22.91;34.24
28428;BME280;15662;49.128;8.520;2023-04-30T10:58:37;100747.28;;;22.91;33.70
28428;BME280;15662;49.128;8.520;2023-04-30T11:01:15;100757.97;;;22.93;33.83
28428;BME280;15662;49.128;8.520;2023-04-30T11:04:23;100745.97;;;22.97;33.76
28428;BME280;15662;49.128;8.520;2023-04-30T11:09:47;100758.19;;;23.15;33.38
28428;BME280;15662;49.128;8.520;2023-04-30T11:12:19;100749.28;;;23.13;33.39
28428;BME280;15662;49.128;8.520;2023-04-30T11:15:17;100745.19;;;23.21;33.19
28428;BME280;15662;49.128;8.520;2023-04-30T11:17:50;100752.09;;;23.25;32.89
28428;BME280;15662;49.128;8.520;2023-04-30T11:20:20;100727.88;;;23.23;33.14
28428;BME280;15662;49.128;8.520;2023-04-30T11:23:13;100734.13;;;23.36;32.78
28428;BME280;15662;49.128;8.520;2023-04-30T11:25:55;100739.28;;;23.39;33.13
28428;BME280;15662;49.128;8.520;2023-04-30T11:28:28;100733.53;;;23.44;32.56
28428;BME280;15662;49.128;8.520;2023-04-30T11:30:58;100722.38;;;23.49;32.43
28428;BME280;15662;49.128;8.520;2023-04-30T11:33:29;100721.94;;;23.55;32.63
28428;BME280;15662;49.128;8.520;2023-04-30T11:35:58;100728.81;;;23.59;32.54
28428;BME280;15662;49.128;8.520;2023-04-30T11:38:33;100728.72;;;23.60;32.32
28428;BME280;15662;49.128;8.520;2023-04-30T11:41:03;100724.91;;;23.63;31.89
28428;BME280;15662;49.128;8.520;2023-04-30T11:43:32;100726.44;;;23.67;32.24
28428;BME280;15662;49.128;8.520;2023-04-30T11:46:10;100732.16;;;23.75;32.25
28428;BME280;15662;49.128;8.520;2023-04-30T11:48:44;100727.50;;;23.77;31.89
28428;BME280;15662;49.128;8.520;2023-04-30T11:51:22;100723.34;;;23.84;31.74
28428;BME280;15662;49.128;8.520;2023-04-30T11:53:52;100725.81;;;23.87;31.94
28428;BME280;15662;49.128;8.520;2023-04-30T11:56:24;100731.00;;;23.90;31.54
28428;BME280;15662;49.128;8.520;2023-04-30T11:58:53;100729.38;;;23.88;31.58
28428;BME280;15662;49.128;8.520;2023-04-30T12:01:27;100717.56;;;23.89;31.48
28428;BME280;15662;49.128;8.520;2023-04-30T12:03:55;100714.34;;;23.84;31.68
28428;BME280;15662;49.128;8.520;2023-04-30T12:06:26;100708.84;;;23.85;31.77
28428;BME280;15662;49.128;8.520;2023-04-30T12:08:56;100697.19;;;23.72;31.52
28428;BME280;15662;49.128;8.520;2023-04-30T12:11:27;100709.19;;;23.81;31.71
28428;BME280;15662;49.128;8.520;2023-04-30T12:14:05;100707.13;;;23.84;31.70
28428;BME280;15662;49.128;8.520;2023-04-30T12:16:43;100727.31;;;23.91;31.76
28428;BME280;15662;49.128;8.520;2023-04-30T12:19:12;100712.78;;;23.92;31.10
28428;BME280;15662;49.128;8.520;2023-04-30T12:21:42;100694.69;;;23.93;31.51
28428;BME280;15662;49.128;8.520;2023-04-30T12:24:18;100706.16;;;23.97;31.17
28428;BME280;15662;49.128;8.520;2023-04-30T12:26:46;100714.41;;;23.95;31.48
28428;BME280;15662;49.128;8.520;2023-04-30T12:29:16;100696.53;;;23.92;31.33
28428;BME280;15662;49.128;8.520;2023-04-30T12:31:47;100704.69;;;24.04;31.21
28428;BME280;15662;49.128;8.520;2023-04-30T12:34:16;100709.25;;;24.03;31.44
28428;BME280;15662;49.128;8.520;2023-04-30T12:36:45;100706.56;;;24.03;31.28
28428;BME280;15662;49.128;8.520;2023-04-30T12:39:14;100693.53;;;24.08;31.37
28428;BME280;15662;49.128;8.520;2023-04-30T12:41:45;100695.28;;;24.09;31.38
28428;BME280;15662;49.128;8.520;2023-04-30T12:44:21;100699.34;;;24.15;31.41
28428;BME280;15662;49.128;8.520;2023-04-30T12:46:51;100711.19;;;24.25;31.13
28428;BME280;15662;49.128;8.520;2023-04-30T12:49:27;100683.13;;;24.26;30.47
28428;BME280;15662;49.128;8.520;2023-04-30T12:52:13;100682.75;;;24.19;30.54
28428;BME280;15662;49.128;8.520;2023-04-30T12:54:42;100695.00;;;24.12;30.69
28428;BME280;15662;49.128;8.520;2023-04-30T12:57:11;100689.50;;;24.14;30.29
28428;BME280;15662;49.128;8.520;2023-04-30T12:59:56;100689.38;;;24.15;30.34
28428;BME280;15662;49.128;8.520;2023-04-30T13:02:28;100666.09;;;24.13;30.78
28428;BME280;15662;49.128;8.520;2023-04-30T13:04:58;100678.19;;;24.20;31.07
28428;BME280;15662;49.128;8.520;2023-04-30T13:07:36;100664.16;;;24.26;30.60
28428;BME280;15662;49.128;8.520;2023-04-30T13:10:06;100679.31;;;24.29;30.21
28428;BME280;15662;49.128;8.520;2023-04-30T13:12:47;100667.34;;;24.20;30.31
28428;BME280;15662;49.128;8.520;2023-04-30T13:15:15;100662.78;;;24.20;30.27
28428;BME280;15662;49.128;8.520;2023-04-30T13:17:44;100659.09;;;24.22;30.27